Time;durP1;ratioP1;P1;durP2;ratioP2;P2;SDS_P1;SDS_P2;PMS_P1;PMS_P2;Temp;Humidity;BMP_temperature;BMP_pressure;BME280_temperature;BME280_humidity;BME280_pressure;Samples;Min_cycle;Max_cycle;Signal;HPM_P1;HPM_P2
2023/07/24 00:00:19;;;;;;;8.57;6.88;;;27.00;63.90;;;;;;4988366;28;20066;-51
2023/07/24 00:02:44;;;;;;;7.82;7.03;;;27.00;64.80;;;;;;4988265;28;20055;-51
2023/07/24 00:05:10;;;;;;;8.25;7.28;;;27.00;64.20;;;;;;4988236;28;20027;-52
2023/07/24 00:07:35;;;;;;;11.18;7.35;;;26.90;64.20;;;;;;4989428;28;20030;-52
2023/07/24 00:10:01;;;;;;;7.90;7.10;;;26.90;64.20;;;;;;4971787;28;20031;-51
2023/07/24 00:12:27;;;;;;;8.30;7.43;;;26.90;64.30;;;;;;4971843;28;20031;-52
2023/07/24 00:14:52;;;;;;;8.43;7.43;;;26.80;64.30;;;;;;4971790;28;20027;-52
2023/07/24 00:17:18;;;;;;;9.70;7.88;;;26.80;64.30;;;;;;4987920;28;20033;-52
2023/07/24 00:19:44;;;;;;;9.20;7.63;;;26.80;64.40;;;;;;4989060;28;20037;-51
2023/07/24 00:22:09;;;;;;;10.75;7.22;;;26.80;64.60;;;;;;4989163;28;20031;-52
2023/07/24 00:24:35;;;;;;;8.43;7.55;;;26.80;64.50;;;;;;4989094;28;20379;-52
2023/07/24 00:27:01;;;;;;;8.43;7.60;;;26.70;64.60;;;;;;4988067;28;20093;-52
2023/07/24 00:29:27;;;;;;;8.70;7.10;;;26.70;64.70;;;;;;4988017;28;20122;-52
2023/07/24 00:31:52;;;;;;;8.35;7.43;;;26.70;64.80;;;;;;4988518;28;20038;-52
2023/07/24 00:34:18;;;;;;;8.18;7.15;;;26.70;64.80;;;;;;4987507;28;20057;-53
2023/07/24 00:36:43;;;;;;;9.88;7.05;;;26.70;64.80;;;;;;4987715;28;20117;-53
2023/07/24 00:39:09;;;;;;;9.60;8.35;;;26.60;65.00;;;;;;4987913;28;20046;-53
2023/07/24 00:41:34;;;;;;;8.52;7.63;;;26.60;65.20;;;;;;4988215;28;20031;-55
2023/07/24 00:44:00;;;;;;;13.65;7.55;;;26.60;65.70;;;;;;4987930;28;20027;-54
2023/07/24 00:46:25;;;;;;;8.80;7.80;;;26.50;66.90;;;;;;4988198;28;20412;-54
2023/07/24 00:48:51;;;;;;;10.02;7.68;;;26.50;66.70;;;;;;4989542;28;20035;-54
2023/07/24 00:51:17;;;;;;;9.80;7.82;;;26.40;67.40;;;;;;4987948;28;20035;-54
2023/07/24 00:53:42;;;;;;;10.45;7.07;;;26.40;66.80;;;;;;4972425;28;20055;-52
2023/07/24 00:56:08;;;;;;;8.90;7.45;;;26.30;66.80;;;;;;4990033;28;20039;-54
2023/07/24 00:58:34;;;;;;;8.93;7.40;;;26.30;67.00;;;;;;4989795;28;20121;-54
2023/07/24 01:00:59;;;;;;;9.77;7.15;;;26.20;67.00;;;;;;4989112;28;20039;-54
2023/07/24 01:03:32;;;;;;;10.18;7.40;;;26.20;67.20;;;;;;4989580;28;20046;-54
2023/07/24 01:05:57;;;;;;;8.80;7.35;;;26.20;67.30;;;;;;4973919;28;20450;-53
2023/07/24 01:08:23;;;;;;;10.98;7.88;;;26.20;67.70;;;;;;4988465;28;20023;-54
2023/07/24 01:10:49;;;;;;;12.27;7.43;;;26.20;68.10;;;;;;4970829;28;20039;-54
2023/07/24 01:13:20;;;;;;;8.30;6.88;;;26.10;68.30;;;;;;4987416;28;20031;-54
2023/07/24 01:15:48;;;;;;;9.18;7.28;;;26.00;68.40;;;;;;4987388;28;20038;-53
2023/07/24 01:18:14;;;;;;;12.70;7.80;;;26.00;68.50;;;;;;4987152;28;20034;-53
2023/07/24 01:20:45;;;;;;;10.57;7.13;;;26.00;68.60;;;;;;4987530;28;20031;-54
2023/07/24 01:23:15;;;;;;;11.88;8.00;;;26.00;68.80;;;;;;4986890;28;20073;-54
2023/07/24 01:26:00;;;;;;;11.60;8.10;;;26.00;69.00;;;;;;4988168;28;20033;-54
2023/07/24 01:28:26;;;;;;;10.63;7.60;;;26.00;69.00;;;;;;4986916;28;20490;-54
2023/07/24 01:30:52;;;;;;;9.48;8.23;;;25.90;69.30;;;;;;4988055;28;20043;-53
2023/07/24 01:33:18;;;;;;;11.00;7.90;;;25.90;69.60;;;;;;4986702;28;20039;-54
2023/07/24 01:35:44;;;;;;;7.95;7.13;;;25.90;69.90;;;;;;4987031;28;20062;-53
2023/07/24 01:38:13;;;;;;;9.23;7.53;;;25.90;70.70;;;;;;4986571;28;20090;-54
2023/07/24 01:40:41;;;;;;;9.82;7.22;;;25.90;69.80;;;;;;4986543;28;20050;-53
2023/07/24 01:43:07;;;;;;;8.70;7.50;;;25.90;70.00;;;;;;4986314;28;20031;-54
2023/07/24 01:45:33;;;;;;;10.70;7.32;;;25.90;70.10;;;;;;4986356;28;20071;-54
2023/07/24 01:47:59;;;;;;;9.25;7.88;;;25.80;70.10;;;;;;4986433;28;20123;-54
2023/07/24 01:50:24;;;;;;;8.73;7.22;;;25.80;70.90;;;;;;4987578;28;20470;-54
2023/07/24 01:52:50;;;;;;;9.15;7.55;;;25.80;70.50;;;;;;4986845;28;20035;-53
2023/07/24 01:55:15;;;;;;;8.73;7.82;;;25.80;70.80;;;;;;4987017;28;20045;-53
2023/07/24 01:57:41;;;;;;;9.40;7.43;;;25.80;71.00;;;;;;4987201;28;20063;-54
2023/07/24 02:00:07;;;;;;;11.18;7.32;;;25.80;71.20;;;;;;4986446;28;20050;-53
2023/07/24 02:02:33;;;;;;;11.27;7.63;;;25.80;71.50;;;;;;4970660;28;20033;-53
2023/07/24 02:04:58;;;;;;;8.40;7.15;;;25.70;71.50;;;;;;4987736;28;20518;-53
2023/07/24 02:07:24;;;;;;;13.35;7.68;;;25.70;71.80;;;;;;4986687;28;20475;-53
2023/07/24 02:09:50;;;;;;;10.50;7.75;;;25.60;72.00;;;;;;4986815;28;20034;-53
2023/07/24 02:12:15;;;;;;;11.13;7.97;;;25.60;72.20;;;;;;4987374;28;20086;-53
2023/07/24 02:14:41;;;;;;;8.45;7.40;;;25.60;72.20;;;;;;4986640;28;20042;-53
2023/07/24 02:17:06;;;;;;;8.85;6.75;;;25.60;72.30;;;;;;4988230;28;20077;-51
2023/07/24 02:19:32;;;;;;;9.63;7.88;;;25.60;72.40;;;;;;4988349;28;20019;-54
2023/07/24 02:21:57;;;;;;;10.23;7.75;;;25.60;72.60;;;;;;4988738;28;20023;-52
2023/07/24 02:24:23;;;;;;;9.57;7.63;;;25.50;72.80;;;;;;4986049;28;20030;-54
2023/07/24 02:26:48;;;;;;;11.63;7.75;;;25.50;72.90;;;;;;4987325;28;20029;-54
2023/07/24 02:29:14;;;;;;;10.45;7.72;;;25.50;72.90;;;;;;4986536;28;20034;-53
2023/07/24 02:31:39;;;;;;;10.50;7.60;;;25.40;72.80;;;;;;4987785;28;20023;-54
2023/07/24 02:34:05;;;;;;;9.13;7.72;;;25.40;72.80;;;;;;4970402;28;20035;-53
2023/07/24 02:36:30;;;;;;;9.38;8.35;;;25.40;72.90;;;;;;4987529;28;20053;-53
2023/07/24 02:38:56;;;;;;;10.00;8.05;;;25.40;72.90;;;;;;4985926;28;20082;-53
2023/07/24 02:41:21;;;;;;;12.15;8.25;;;25.40;73.00;;;;;;4985711;28;20027;-53
2023/07/24 02:43:47;;;;;;;9.93;8.30;;;25.40;72.90;;;;;;4987228;28;20090;-53
2023/07/24 02:46:13;;;;;;;10.20;8.23;;;25.40;73.10;;;;;;4985767;28;20071;-53
2023/07/24 02:48:38;;;;;;;10.38;7.70;;;25.40;73.30;;;;;;4985612;28;20030;-54
2023/07/24 02:51:04;;;;;;;9.63;8.13;;;25.30;73.20;;;;;;4985649;28;20037;-53
2023/07/24 02:53:29;;;;;;;12.45;8.45;;;25.30;73.40;;;;;;4987518;28;20039;-54
2023/07/24 02:55:55;;;;;;;8.85;7.95;;;25.20;73.60;;;;;;4986168;28;20030;-53
2023/07/24 02:58:21;;;;;;;8.65;7.65;;;25.20;73.70;;;;;;4984616;28;20058;-54
2023/07/24 03:00:46;;;;;;;9.95;7.97;;;25.20;73.90;;;;;;4986569;28;20023;-54
2023/07/24 03:03:12;;;;;;;10.63;7.30;;;25.20;74.00;;;;;;4985616;28;20026;-54
2023/07/24 03:05:37;;;;;;;8.95;7.68;;;25.20;74.00;;;;;;4985332;28;20046;-54
2023/07/24 03:08:03;;;;;;;9.30;7.88;;;25.10;74.10;;;;;;4986501;28;20049;-53
2023/07/24 03:10:29;;;;;;;10.77;8.27;;;25.10;74.10;;;;;;4985539;28;20027;-54
2023/07/24 03:12:54;;;;;;;9.25;6.93;;;25.10;74.30;;;;;;4986232;28;20065;-54
2023/07/24 03:15:20;;;;;;;10.15;7.55;;;25.10;74.30;;;;;;4985128;28;20030;-53
2023/07/24 03:17:45;;;;;;;8.32;7.25;;;25.00;74.30;;;;;;4985223;28;20273;-54
2023/07/24 03:20:15;;;;;;;9.88;7.80;;;25.00;74.50;;;;;;4986622;28;20034;-54
2023/07/24 03:22:41;;;;;;;9.63;7.88;;;24.90;74.60;;;;;;4985556;28;20042;-53
2023/07/24 03:25:07;;;;;;;11.32;7.68;;;24.90;74.60;;;;;;4988321;28;20027;-54
2023/07/24 03:27:33;;;;;;;12.25;7.38;;;24.90;74.70;;;;;;4988523;28;20035;-54
2023/07/24 03:29:58;;;;;;;9.32;7.70;;;24.90;74.70;;;;;;4988958;28;20058;-53
2023/07/24 03:32:24;;;;;;;8.40;7.53;;;24.90;74.80;;;;;;4988563;28;20038;-54
2023/07/24 03:34:49;;;;;;;10.52;8.00;;;24.90;75.10;;;;;;4988890;28;20102;-54
2023/07/24 03:37:15;;;;;;;9.90;8.10;;;24.80;75.00;;;;;;4990078;28;20439;-53
2023/07/24 03:39:40;;;;;;;10.07;8.07;;;24.80;75.20;;;;;;4972970;28;20053;-53
2023/07/24 03:42:06;;;;;;;9.40;7.95;;;24.80;75.20;;;;;;4990975;28;20042;-54
2023/07/24 03:44:31;;;;;;;10.32;7.65;;;24.80;75.20;;;;;;4990181;28;20027;-54
2023/07/24 03:46:57;;;;;;;9.93;8.13;;;24.80;75.40;;;;;;4988627;28;20026;-53
2023/07/24 03:49:22;;;;;;;10.70;8.40;;;24.70;75.50;;;;;;4989738;28;20123;-53
2023/07/24 03:51:48;;;;;;;13.65;7.90;;;24.70;75.80;;;;;;4989633;28;20462;-54
2023/07/24 03:54:14;;;;;;;9.30;7.97;;;24.60;75.90;;;;;;4971365;28;20022;-53
2023/07/24 03:56:39;;;;;;;9.30;7.40;;;24.70;76.00;;;;;;4988812;28;20094;-53
2023/07/24 03:59:05;;;;;;;13.10;7.70;;;24.60;75.90;;;;;;4987931;28;20058;-53
2023/07/24 04:01:31;;;;;;;8.50;7.60;;;24.60;76.00;;;;;;4988237;28;20035;-54
2023/07/24 04:03:57;;;;;;;9.65;7.80;;;24.60;76.20;;;;;;4987984;28;20030;-53
2023/07/24 04:06:23;;;;;;;8.40;7.50;;;24.60;76.00;;;;;;4988387;28;20056;-54
2023/07/24 04:08:48;;;;;;;8.93;7.28;;;24.60;76.70;;;;;;4989294;28;20391;-54
2023/07/24 04:11:14;;;;;;;8.95;7.32;;;24.60;76.00;;;;;;4988203;28;20093;-53
2023/07/24 04:13:39;;;;;;;8.43;7.53;;;24.50;76.20;;;;;;4989416;28;20077;-54
2023/07/24 04:16:05;;;;;;;11.65;7.65;;;24.50;76.40;;;;;;4989326;28;20035;-54
2023/07/24 04:18:31;;;;;;;9.40;7.68;;;24.50;76.50;;;;;;4989089;28;20445;-52
2023/07/24 04:20:56;;;;;;;10.75;8.38;;;24.50;76.70;;;;;;4987821;28;20164;-54
2023/07/24 04:23:22;;;;;;;12.57;7.60;;;24.40;76.70;;;;;;4988096;28;20019;-54
2023/07/24 04:25:49;;;;;;;8.68;7.25;;;24.40;76.50;;;;;;4988986;28;20027;-54
2023/07/24 04:28:15;;;;;;;9.60;7.05;;;24.50;76.30;;;;;;4987743;28;20023;-54
2023/07/24 04:30:40;;;;;;;8.77;7.50;;;24.40;76.10;;;;;;4988822;28;20039;-53
2023/07/24 04:33:06;;;;;;;10.38;7.75;;;24.40;76.10;;;;;;4987658;28;20033;-53
2023/07/24 04:35:32;;;;;;;9.35;6.78;;;24.40;76.20;;;;;;4986464;28;20039;-53
2023/07/24 04:37:57;;;;;;;9.43;7.53;;;24.40;76.30;;;;;;4988637;28;20035;-54
2023/07/24 04:40:23;;;;;;;10.73;7.82;;;24.40;76.80;;;;;;4988688;28;20034;-54
2023/07/24 04:42:49;;;;;;;10.60;7.95;;;24.40;77.30;;;;;;4971157;28;20039;-53
2023/07/24 04:45:15;;;;;;;9.63;8.15;;;24.40;77.80;;;;;;4988803;28;20058;-53
2023/07/24 04:47:40;;;;;;;12.10;8.25;;;24.40;77.90;;;;;;4987298;28;20034;-52
2023/07/24 04:50:06;;;;;;;9.65;7.97;;;24.40;78.10;;;;;;4988578;28;20027;-53
2023/07/24 04:52:31;;;;;;;10.70;8.05;;;24.40;78.30;;;;;;4971122;28;20030;-53
2023/07/24 04:54:57;;;;;;;9.70;7.95;;;24.30;78.60;;;;;;4987022;28;20122;-53
2023/07/24 04:57:23;;;;;;;13.05;7.68;;;24.20;78.70;;;;;;4987487;28;20045;-53
2023/07/24 04:59:48;;;;;;;9.15;7.75;;;24.20;78.70;;;;;;4986920;28;20031;-53
2023/07/24 05:02:14;;;;;;;15.82;7.80;;;24.20;78.80;;;;;;4988366;28;20030;-53
2023/07/24 05:04:39;;;;;;;10.07;7.03;;;24.10;78.90;;;;;;4985149;28;20395;-54
2023/07/24 05:07:05;;;;;;;11.25;7.55;;;24.10;79.00;;;;;;4985256;28;20027;-53
2023/07/24 05:09:30;;;;;;;8.00;7.20;;;24.10;79.20;;;;;;4986412;28;20046;-53
2023/07/24 05:11:56;;;;;;;11.27;7.88;;;24.00;79.20;;;;;;4986941;28;20027;-53
2023/07/24 05:14:21;;;;;;;8.05;7.22;;;24.10;79.20;;;;;;4986999;28;20032;-53
2023/07/24 05:16:47;;;;;;;9.18;7.30;;;24.00;79.10;;;;;;4987967;28;20038;-53
2023/07/24 05:19:12;;;;;;;10.45;7.07;;;24.00;79.20;;;;;;4988463;28;20031;-53
2023/07/24 05:21:38;;;;;;;10.65;7.35;;;24.00;79.10;;;;;;4982627;28;20034;-53
2023/07/24 05:24:04;;;;;;;9.38;7.47;;;24.00;79.00;;;;;;4986216;28;20042;-53
2023/07/24 05:26:29;;;;;;;8.93;7.47;;;24.00;78.80;;;;;;4987176;28;20030;-53
2023/07/24 05:28:55;;;;;;;11.48;6.85;;;23.90;78.70;;;;;;4969571;28;20513;-53
2023/07/24 05:31:20;;;;;;;8.25;7.45;;;24.00;78.80;;;;;;4988383;28;20038;-53
2023/07/24 05:33:46;;;;;;;11.23;7.32;;;23.90;78.80;;;;;;4987694;28;20031;-53
2023/07/24 05:36:11;;;;;;;10.10;6.90;;;23.90;78.90;;;;;;4987010;28;20026;-53
2023/07/24 05:38:37;;;;;;;8.50;6.72;;;23.90;79.20;;;;;;4987067;28;20035;-53
2023/07/24 05:41:03;;;;;;;7.57;6.50;;;23.90;79.30;;;;;;4990343;28;20050;-53
2023/07/24 05:43:28;;;;;;;9.05;6.72;;;23.80;79.50;;;;;;4991237;28;20093;-53
2023/07/24 05:45:55;;;;;;;12.23;6.57;;;23.90;79.80;;;;;;4989350;28;20023;-53
2023/07/24 05:48:21;;;;;;;9.48;5.57;;;23.80;80.30;;;;;;4986438;28;20027;-53
2023/07/24 05:50:47;;;;;;;10.00;6.97;;;23.80;80.70;;;;;;4986439;28;20026;-53
2023/07/24 05:53:13;;;;;;;9.45;6.03;;;23.80;80.90;;;;;;4987507;28;20046;-53
2023/07/24 05:55:38;;;;;;;10.05;6.35;;;23.80;81.20;;;;;;4987547;28;20034;-54
2023/07/24 05:58:04;;;;;;;8.00;6.00;;;23.80;81.20;;;;;;4987458;28;20382;-54
2023/07/24 06:00:29;;;;;;;10.80;6.20;;;23.70;81.20;;;;;;4987714;28;20035;-54
2023/07/24 06:02:55;;;;;;;9.90;5.38;;;23.70;81.30;;;;;;4970427;28;20027;-54
2023/07/24 06:05:20;;;;;;;12.75;6.38;;;23.70;81.30;;;;;;4987248;28;20026;-54
2023/07/24 06:07:46;;;;;;;10.77;5.78;;;23.70;81.40;;;;;;5003903;28;20026;-54
2023/07/24 06:10:12;;;;;;;10.15;5.85;;;23.70;81.40;;;;;;5002471;28;20035;-54
2023/07/24 06:12:38;;;;;;;9.15;5.93;;;23.70;81.50;;;;;;5002383;28;20035;-54
2023/07/24 06:15:04;;;;;;;10.05;6.22;;;23.70;81.50;;;;;;4986307;28;20027;-53
2023/07/24 06:17:30;;;;;;;9.38;5.85;;;23.70;81.60;;;;;;4987555;28;20039;-54
2023/07/24 06:19:55;;;;;;;9.90;6.05;;;23.70;81.60;;;;;;4986666;28;20125;-54
2023/07/24 06:22:21;;;;;;;17.40;6.68;;;23.70;81.60;;;;;;5004053;28;20034;-53
2023/07/24 06:24:46;;;;;;;17.38;6.07;;;23.70;81.90;;;;;;4988119;28;20053;-54
2023/07/24 06:27:12;;;;;;;9.90;5.90;;;23.70;81.90;;;;;;4987197;28;20026;-54
2023/07/24 06:29:37;;;;;;;11.30;6.05;;;23.80;81.60;;;;;;4985916;28;20030;-53
2023/07/24 06:32:03;;;;;;;7.28;5.28;;;23.70;81.30;;;;;;5002262;28;20047;-53
2023/07/24 06:34:29;;;;;;;13.68;6.10;;;23.70;81.20;;;;;;4985964;28;20066;-54
2023/07/24 06:36:54;;;;;;;10.20;5.30;;;23.70;81.50;;;;;;4985405;28;20105;-54
2023/07/24 06:39:20;;;;;;;12.88;5.40;;;23.70;81.70;;;;;;4987632;28;20035;-54
2023/07/24 06:41:46;;;;;;;14.40;5.50;;;23.80;81.80;;;;;;4985692;28;20046;-54
2023/07/24 06:44:11;;;;;;;11.90;5.97;;;23.70;82.40;;;;;;4986011;28;20050;-53
2023/07/24 06:46:37;;;;;;;15.63;5.90;;;23.70;82.00;;;;;;4987499;28;20122;-53
2023/07/24 06:49:02;;;;;;;18.30;6.05;;;23.70;82.00;;;;;;4985805;28;20035;-54
2023/07/24 06:51:28;;;;;;;13.98;5.88;;;23.70;82.10;;;;;;4988236;28;20027;-54
2023/07/24 06:53:53;;;;;;;10.20;5.53;;;23.80;82.20;;;;;;4987831;28;20030;-54
2023/07/24 06:56:19;;;;;;;10.65;5.70;;;23.80;82.50;;;;;;4986823;28;20061;-54
2023/07/24 06:58:44;;;;;;;12.93;5.75;;;23.70;82.30;;;;;;4986904;28;20034;-54
2023/07/24 07:01:10;;;;;;;14.50;6.28;;;23.70;82.20;;;;;;4989227;28;20034;-54
2023/07/24 07:03:35;;;;;;;14.13;5.65;;;23.80;82.40;;;;;;4979342;28;20066;-54
2023/07/24 07:06:01;;;;;;;11.85;6.22;;;23.80;82.50;;;;;;4954291;29;20027;-54
2023/07/24 07:08:27;;;;;;;12.82;5.93;;;23.80;82.50;;;;;;4970082;29;20042;-53
2023/07/24 07:10:59;;;;;;;16.92;5.90;;;23.80;82.60;;;;;;4970402;29;20029;-54
2023/07/24 07:13:25;;;;;;;15.45;5.97;;;23.80;82.70;;;;;;4971545;29;20031;-53
2023/07/24 07:15:50;;;;;;;13.77;5.15;;;23.80;82.80;;;;;;4971554;29;20070;-54
2023/07/24 07:18:16;;;;;;;9.32;5.97;;;23.80;83.10;;;;;;4954081;29;20027;-54
2023/07/24 07:20:48;;;;;;;16.40;5.55;;;23.80;83.00;;;;;;4974330;28;20039;-54
2023/07/24 07:23:14;;;;;;;15.10;5.97;;;23.80;82.90;;;;;;4988914;28;20027;-54
2023/07/24 07:25:39;;;;;;;15.00;5.75;;;23.80;82.50;;;;;;4989015;28;20070;-54
2023/07/24 07:28:05;;;;;;;9.07;5.65;;;23.80;82.60;;;;;;4989083;28;20082;-53
2023/07/24 07:30:30;;;;;;;12.48;5.25;;;23.80;82.70;;;;;;4990243;28;20031;-54
2023/07/24 07:32:56;;;;;;;10.32;5.63;;;23.80;82.60;;;;;;4990065;28;20081;-54
2023/07/24 07:35:21;;;;;;;13.40;5.85;;;23.80;83.30;;;;;;4990288;28;20034;-53
2023/07/24 07:37:47;;;;;;;10.23;6.35;;;23.90;84.00;;;;;;4988991;28;20034;-54
2023/07/24 07:40:12;;;;;;;17.00;5.78;;;23.90;84.10;;;;;;4990348;28;20090;-54
2023/07/24 07:42:38;;;;;;;13.15;6.40;;;23.90;84.30;;;;;;4988689;28;20046;-53
2023/07/24 07:45:04;;;;;;;14.75;5.82;;;23.80;84.80;;;;;;4989926;28;20027;-54
2023/07/24 07:47:30;;;;;;;11.05;5.38;;;23.80;85.20;;;;;;4988621;28;20046;-53
2023/07/24 07:49:55;;;;;;;20.95;6.22;;;23.80;85.20;;;;;;4988132;28;20031;-54
2023/07/24 07:52:22;;;;;;;10.25;5.07;;;23.80;85.70;;;;;;4988501;28;20469;-54
2023/07/24 07:54:48;;;;;;;10.52;5.70;;;23.80;85.60;;;;;;4987872;28;20039;-54
2023/07/24 07:57:14;;;;;;;12.20;6.07;;;23.80;85.90;;;;;;4968622;29;20035;-53
2023/07/24 07:59:40;;;;;;;15.75;6.38;;;23.80;85.50;;;;;;4988044;28;20067;-53
2023/07/24 08:02:05;;;;;;;13.43;5.80;;;23.80;85.90;;;;;;4999127;28;20105;-53
2023/07/24 08:04:31;;;;;;;13.15;5.88;;;23.80;86.60;;;;;;4989283;28;20027;-54
2023/07/24 08:06:56;;;;;;;15.20;6.05;;;23.80;86.60;;;;;;4984081;28;20033;-53
2023/07/24 08:09:23;;;;;;;23.17;6.80;;;23.80;86.40;;;;;;4985081;28;20027;-54
2023/07/24 08:11:49;;;;;;;18.42;6.07;;;23.90;87.20;;;;;;4987849;28;20027;-53
2023/07/24 08:14:15;;;;;;;20.50;6.60;;;23.90;87.20;;;;;;4979981;28;20030;-54
2023/07/24 08:16:40;;;;;;;20.92;7.18;;;23.90;87.30;;;;;;4986845;28;20083;-53
2023/07/24 08:19:06;;;;;;;17.58;6.88;;;23.90;87.60;;;;;;4988388;28;20046;-54
2023/07/24 08:21:32;;;;;;;17.88;6.30;;;23.90;87.30;;;;;;4987282;28;20031;-54
2023/07/24 08:23:57;;;;;;;19.63;6.90;;;23.90;86.50;;;;;;4987005;28;20027;-54
2023/07/24 08:26:25;;;;;;;24.23;7.22;;;24.00;88.40;;;;;;4970866;28;20471;-53
2023/07/24 08:28:51;;;;;;;15.63;6.82;;;24.10;88.50;;;;;;4987530;28;20037;-54
2023/07/24 08:31:17;;;;;;;16.67;6.22;;;24.10;88.70;;;;;;4987724;28;20039;-54
2023/07/24 08:33:43;;;;;;;22.17;6.85;;;24.10;89.00;;;;;;4986395;28;20034;-54
2023/07/24 08:36:08;;;;;;;18.02;6.75;;;24.10;89.00;;;;;;4986032;28;20034;-53
2023/07/24 08:38:34;;;;;;;15.30;6.75;;;24.10;89.00;;;;;;4986140;28;20026;-53
2023/07/24 08:41:01;;;;;;;26.80;8.63;;;24.10;89.00;;;;;;4986731;28;20035;-54
2023/07/24 08:43:27;;;;;;;27.98;7.18;;;24.10;89.40;;;;;;4970743;28;20027;-53
2023/07/24 08:45:52;;;;;;;33.50;8.30;;;24.10;89.30;;;;;;4986125;28;20027;-53
2023/07/24 08:48:18;;;;;;;35.80;9.15;;;24.20;89.40;;;;;;4986726;28;20050;-54
2023/07/24 08:50:44;;;;;;;44.60;10.32;;;24.20;90.00;;;;;;4986978;28;20035;-54
2023/07/24 08:53:09;;;;;;;61.20;10.35;;;24.20;89.90;;;;;;4986591;28;20045;-53
2023/07/24 08:55:35;;;;;;;47.67;10.75;;;24.20;89.90;;;;;;4994871;28;20031;-53
2023/07/24 08:58:00;;;;;;;44.60;10.23;;;24.20;89.90;;;;;;4969119;28;20094;-53
2023/07/24 09:00:26;;;;;;;52.88;11.30;;;24.30;90.00;;;;;;4986538;28;20045;-54
2023/07/24 09:02:52;;;;;;;67.03;12.75;;;24.20;90.00;;;;;;4987107;28;20050;-53
2023/07/24 09:05:17;;;;;;;69.70;12.20;;;24.30;90.10;;;;;;4975436;28;20035;-53
2023/07/24 09:07:43;;;;;;;60.83;11.88;;;24.30;90.30;;;;;;4985451;28;20026;-54
2023/07/24 09:10:09;;;;;;;52.40;12.43;;;24.30;90.10;;;;;;4970294;28;20043;-53
2023/07/24 09:12:37;;;;;;;95.82;16.33;;;24.30;89.90;;;;;;4985177;28;20087;-53
2023/07/24 09:15:03;;;;;;;89.60;15.25;;;24.40;90.20;;;;;;4985812;28;20039;-53
2023/07/24 09:17:29;;;;;;;74.05;13.48;;;24.40;90.10;;;;;;4985854;28;20045;-53
2023/07/24 09:19:58;;;;;;;68.50;12.82;;;24.50;90.00;;;;;;4985853;28;20030;-54
2023/07/24 09:22:26;;;;;;;79.05;14.93;;;24.50;89.80;;;;;;4974325;28;20034;-54
2023/07/24 09:24:56;;;;;;;94.20;15.52;;;24.50;89.90;;;;;;4985345;28;20504;-53
2023/07/24 09:27:25;;;;;;;73.93;13.15;;;24.50;90.20;;;;;;4986318;28;20514;-53
2023/07/24 09:29:50;;;;;;;82.13;14.02;;;24.50;90.20;;;;;;4984702;28;20517;-53
2023/07/24 09:32:23;;;;;;;72.43;14.20;;;24.60;90.00;;;;;;4989594;28;20075;-53
2023/07/24 09:34:50;;;;;;;77.20;13.68;;;24.60;89.80;;;;;;5000573;28;20035;-54
2023/07/24 09:37:33;;;;;;;92.95;17.13;;;24.60;89.50;;;;;;4984829;28;20034;-53
2023/07/24 09:39:59;;;;;;;106.35;15.90;;;24.70;89.30;;;;;;4992099;28;20030;-52
2023/07/24 09:42:34;;;;;;;104.28;16.27;;;24.70;89.00;;;;;;4996010;28;20845;-53
2023/07/24 09:45:00;;;;;;;;;;;24.70;88.90;;;;;;4984900;28;20030;-54
2023/07/24 09:47:26;;;;;;;;;;;24.70;88.70;;;;;;4985086;28;19910;-53
2023/07/24 09:49:53;;;;;;;76.97;14.98;;;24.70;88.50;;;;;;4987345;28;19914;-53
2023/07/24 09:52:19;;;;;;;70.03;14.85;;;24.80;88.70;;;;;;4985070;28;20090;-53
2023/07/24 09:55:03;;;;;;;110.05;17.20;;;24.80;88.70;;;;;;4982684;28;20035;-53
2023/07/24 09:57:28;;;;;;;57.60;13.02;;;24.80;88.50;;;;;;4989405;28;20031;-53
2023/07/24 09:59:54;;;;;;;113.75;16.15;;;24.70;88.40;;;;;;4970930;28;20386;-53
2023/07/24 10:02:20;;;;;;;74.72;14.82;;;24.80;89.00;;;;;;4953893;28;20037;-53
2023/07/24 10:04:46;;;;;;;69.35;13.18;;;24.70;89.10;;;;;;4984434;28;20160;-53
2023/07/24 10:07:11;;;;;;;72.10;14.55;;;24.70;89.00;;;;;;4984923;28;20037;-53
2023/07/24 10:09:37;;;;;;;117.05;17.00;;;24.70;89.30;;;;;;4984307;28;20063;-53
2023/07/24 10:12:02;;;;;;;74.30;13.95;;;24.70;89.70;;;;;;4981791;28;20019;-53
2023/07/24 10:14:29;;;;;;;61.78;13.68;;;24.70;89.80;;;;;;4984879;28;20031;-54
2023/07/24 10:16:55;;;;;;;52.85;12.85;;;24.70;89.90;;;;;;4984167;28;20025;-53
2023/07/24 10:19:21;;;;;;;52.13;11.85;;;24.70;89.90;;;;;;4984713;28;20122;-53
2023/07/24 10:21:47;;;;;;;69.03;14.25;;;24.70;89.50;;;;;;4984272;28;20391;-53
2023/07/24 10:24:13;;;;;;;77.00;15.23;;;24.80;89.00;;;;;;4967727;28;20031;-53
2023/07/24 10:26:39;;;;;;;77.25;13.70;;;24.80;88.90;;;;;;4966830;28;20039;-53
2023/07/24 10:29:06;;;;;;;67.68;12.77;;;24.80;88.90;;;;;;4985316;28;20030;-53
2023/07/24 10:31:31;;;;;;;69.28;13.02;;;24.90;88.10;;;;;;4979298;28;20082;-53
2023/07/24 10:34:06;;;;;;;75.97;13.15;;;24.90;88.60;;;;;;4981103;28;20026;-53
2023/07/24 10:36:36;;;;;;;51.78;12.77;;;24.90;88.50;;;;;;4989208;28;20050;-53
2023/07/24 10:39:02;;;;;;;63.17;12.95;;;24.90;88.10;;;;;;4988810;28;20454;-54
2023/07/24 10:41:35;;;;;;;61.58;12.43;;;24.90;88.00;;;;;;4990428;28;20039;-54
2023/07/24 10:44:00;;;;;;;47.40;11.13;;;25.00;87.60;;;;;;4992466;28;20253;-54
2023/07/24 10:46:35;;;;;;;58.97;12.82;;;25.00;87.20;;;;;;4988985;28;20038;-53
2023/07/24 10:49:02;;;;;;;44.78;11.82;;;25.00;86.80;;;;;;4990302;28;20027;-53
2023/07/24 10:51:28;;;;;;;60.88;11.93;;;25.00;86.20;;;;;;4992424;28;20047;-54
2023/07/24 10:53:54;;;;;;;65.38;12.52;;;25.10;86.00;;;;;;4979748;28;20027;-54
2023/07/24 10:56:19;;;;;;;58.38;10.80;;;25.10;85.80;;;;;;4988284;28;20035;-54
2023/07/24 10:58:45;;;;;;;51.25;11.95;;;25.10;85.40;;;;;;4988748;28;20463;-53
2023/07/24 11:01:11;;;;;;;56.17;10.52;;;25.00;85.40;;;;;;4988686;28;20387;-54
2023/07/24 11:03:37;;;;;;;199.25;18.27;;;25.00;85.80;;;;;;4987855;28;20051;-52
2023/07/24 11:06:03;;;;;;;122.28;13.70;;;24.90;87.20;;;;;;4988834;28;20035;-52
2023/07/24 11:08:28;;;;;;;115.30;12.45;;;24.80;87.60;;;;;;4988688;28;20438;-52
2023/07/24 11:10:57;;;;;;;110.00;11.77;;;24.80;87.30;;;;;;4971768;28;20113;-53
2023/07/24 11:13:28;;;;;;;133.35;13.07;;;24.70;86.80;;;;;;4985670;28;20110;-53
2023/07/24 11:15:54;;;;;;;129.02;13.48;;;24.60;86.60;;;;;;4984291;28;20031;-53
2023/07/24 11:18:21;;;;;;;120.38;11.60;;;24.60;86.70;;;;;;4987581;28;20062;-53
2023/07/24 11:20:49;;;;;;;96.95;10.63;;;24.60;86.80;;;;;;4988746;28;20027;-53
2023/07/24 11:23:14;;;;;;;97.75;11.82;;;24.60;86.80;;;;;;4988654;28;20176;-53
2023/07/24 11:25:40;;;;;;;109.32;12.48;;;24.60;87.00;;;;;;4988621;28;20019;-53
2023/07/24 11:28:09;;;;;;;108.43;12.52;;;24.70;86.70;;;;;;4988372;28;20031;-53
2023/07/24 11:30:35;;;;;;;91.18;12.20;;;24.70;86.50;;;;;;4988386;28;20050;-54
2023/07/24 11:33:02;;;;;;;96.57;11.43;;;24.80;86.60;;;;;;4988488;28;20027;-53
2023/07/24 11:35:28;;;;;;;80.95;11.18;;;24.80;86.70;;;;;;4986713;28;20046;-53
2023/07/24 11:37:54;;;;;;;115.80;13.45;;;24.80;86.30;;;;;;4987104;28;20023;-53
2023/07/24 11:40:20;;;;;;;96.13;11.80;;;24.90;86.40;;;;;;4987042;28;20038;-53
2023/07/24 11:42:46;;;;;;;101.22;11.68;;;24.90;86.30;;;;;;4988422;28;20027;-54
2023/07/24 11:45:12;;;;;;;83.18;11.60;;;24.90;86.00;;;;;;4974077;28;20047;-53
2023/07/24 11:47:45;;;;;;;75.35;11.10;;;24.90;86.10;;;;;;4988308;28;20033;-53
2023/07/24 11:50:11;;;;;;;74.03;11.10;;;24.90;85.60;;;;;;4989609;28;20034;-53
2023/07/24 11:52:47;;;;;;;74.75;10.10;;;24.90;85.70;;;;;;4971922;28;20027;-54
2023/07/24 11:55:14;;;;;;;62.67;10.63;;;24.90;86.10;;;;;;4988143;28;20033;-53
2023/07/24 11:57:40;;;;;;;69.10;9.93;;;25.00;86.10;;;;;;4987535;28;20075;-54
2023/07/24 12:00:06;;;;;;;78.60;11.00;;;25.00;86.10;;;;;;4986854;28;20458;-54
2023/07/24 12:02:32;;;;;;;63.85;8.25;;;25.00;86.00;;;;;;4989328;28;20034;-54
2023/07/24 12:04:58;;;;;;;54.38;8.10;;;25.00;86.20;;;;;;4987858;28;20166;-54
2023/07/24 12:07:33;;;;;;;48.50;8.05;;;25.10;86.30;;;;;;4985700;28;20026;-53
2023/07/24 12:10:00;;;;;;;48.60;7.68;;;25.10;86.70;;;;;;4985838;28;20030;-54
2023/07/24 12:12:36;;;;;;;72.75;9.63;;;25.10;86.80;;;;;;4987206;28;20046;-53
2023/07/24 12:15:01;;;;;;;62.72;9.52;;;25.10;87.00;;;;;;4988662;28;20338;-53
2023/07/24 12:17:27;;;;;;;72.95;10.05;;;25.20;87.20;;;;;;4984657;28;20474;-53
2023/07/24 12:19:52;;;;;;;60.58;9.57;;;25.10;86.90;;;;;;4988831;28;20491;-53
2023/07/24 12:22:18;;;;;;;72.32;9.60;;;25.20;87.50;;;;;;4988429;28;20375;-53
2023/07/24 12:24:44;;;;;;;63.75;9.70;;;25.20;87.50;;;;;;4987539;28;20027;-53
2023/07/24 12:27:09;;;;;;;57.45;8.35;;;25.20;87.60;;;;;;4988229;28;20049;-53
2023/07/24 12:29:35;;;;;;;70.22;9.38;;;25.30;87.50;;;;;;4987187;28;20399;-53
2023/07/24 12:32:01;;;;;;;54.85;9.10;;;25.30;87.50;;;;;;4988333;28;20019;-54